sensor_id;sensor_type;location;lat;lon;timestamp;pressure;altitude;pressure_sealevel;temperature;humidity
17072;BME280;7731;50.720;6.912;2023-01-13T00:01:10;99104.72;;;10.10;100.00
17072;BME280;7731;50.720;6.912;2023-01-13T00:03:41;99101.81;;;10.02;100.00
17072;BME280;7731;50.720;6.912;2023-01-13T00:06:14;99100.56;;;9.95;100.00
17072;BME280;7731;50.720;6.912;2023-01-13T00:08:47;99094.50;;;9.96;100.00
17072;BME280;7731;50.720;6.912;2023-01-13T00:11:19;99101.63;;;10.05;100.00
17072;BME280;7731;50.720;6.912;2023-01-13T00:13:51;99104.88;;;9.94;100.00
17072;BME280;7731;50.720;6.912;2023-01-13T00:16:22;99092.28;;;10.04;100.00
17072;BME280;7731;50.720;6.912;2023-01-13T00:18:52;99086.19;;;9.92;100.00
17072;BME280;7731;50.720;6.912;2023-01-13T00:21:30;99082.47;;;9.83;100.00
17072;BME280;7731;50.720;6.912;2023-01-13T00:24:01;99083.16;;;10.00;100.00
17072;BME280;7731;50.720;6.912;2023-01-13T00:26:31;99087.22;;;9.90;100.00
17072;BME280;7731;50.720;6.912;2023-01-13T00:29:05;99087.41;;;9.87;100.00
17072;BME280;7731;50.720;6.912;2023-01-13T00:31:35;99079.38;;;9.78;100.00
17072;BME280;7731;50.720;6.912;2023-01-13T00:34:05;99077.41;;;9.69;100.00
17072;BME280;7731;50.720;6.912;2023-01-13T00:36:35;99081.41;;;9.73;100.00
17072;BME280;7731;50.720;6.912;2023-01-13T00:39:05;99084.81;;;9.74;100.00
17072;BME280;7731;50.720;6.912;2023-01-13T00:41:35;99081.41;;;9.73;100.00
17072;BME280;7731;50.720;6.912;2023-01-13T00:44:20;99074.88;;;9.82;100.00
17072;BME280;7731;50.720;6.912;2023-01-13T00:46:50;99078.34;;;9.81;100.00
17072;BME280;7731;50.720;6.912;2023-01-13T00:49:20;99083.75;;;9.91;100.00
17072;BME280;7731;50.720;6.912;2023-01-13T00:51:50;99081.28;;;9.89;100.00
17072;BME280;7731;50.720;6.912;2023-01-13T00:54:21;99082.09;;;9.90;100.00
17072;BME280;7731;50.720;6.912;2023-01-13T00:56:51;99071.44;;;9.96;100.00
17072;BME280;7731;50.720;6.912;2023-01-13T00:59:25;99069.38;;;10.01;100.00
17072;BME280;7731;50.720;6.912;2023-01-13T01:01:55;99068.38;;;10.04;100.00
17072;BME280;7731;50.720;6.912;2023-01-13T01:04:26;99086.03;;;10.08;100.00
17072;BME280;7731;50.720;6.912;2023-01-13T01:06:56;99082.91;;;9.90;100.00
17072;BME280;7731;50.720;6.912;2023-01-13T01:09:28;99087.28;;;9.61;100.00
17072;BME280;7731;50.720;6.912;2023-01-13T01:12:00;99093.75;;;9.54;100.00
17072;BME280;7731;50.720;6.912;2023-01-13T01:14:33;99104.38;;;9.33;100.00
17072;BME280;7731;50.720;6.912;2023-01-13T01:17:03;99116.91;;;9.38;100.00
17072;BME280;7731;50.720;6.912;2023-01-13T01:19:33;99115.28;;;9.22;100.00
17072;BME280;7731;50.720;6.912;2023-01-13T01:22:05;99127.72;;;9.00;100.00
17072;BME280;7731;50.720;6.912;2023-01-13T01:24:35;99100.44;;;8.84;100.00
17072;BME280;7731;50.720;6.912;2023-01-13T01:27:05;99107.84;;;8.74;100.00
17072;BME280;7731;50.720;6.912;2023-01-13T01:29:37;99094.41;;;8.71;100.00
17072;BME280;7731;50.720;6.912;2023-01-13T01:32:07;99093.44;;;8.88;100.00
17072;BME280;7731;50.720;6.912;2023-01-13T01:34:38;99103.13;;;8.97;100.00
17072;BME280;7731;50.720;6.912;2023-01-13T01:37:08;99104.03;;;9.10;100.00
17072;BME280;7731;50.720;6.912;2023-01-13T01:39:38;99116.28;;;9.05;100.00
17072;BME280;7731;50.720;6.912;2023-01-13T01:42:14;99126.53;;;9.05;100.00
17072;BME280;7731;50.720;6.912;2023-01-13T01:45:14;99130.84;;;9.19;100.00
17072;BME280;7731;50.720;6.912;2023-01-13T01:47:51;99125.81;;;9.18;100.00
17072;BME280;7731;50.720;6.912;2023-01-13T01:50:26;99133.50;;;9.46;100.00
17072;BME280;7731;50.720;6.912;2023-01-13T01:53:04;99132.41;;;9.51;100.00
17072;BME280;7731;50.720;6.912;2023-01-13T01:55:37;99153.81;;;9.35;100.00
17072;BME280;7731;50.720;6.912;2023-01-13T01:58:13;99145.13;;;9.23;100.00
17072;BME280;7731;50.720;6.912;2023-01-13T02:00:47;99144.28;;;9.23;100.00
17072;BME280;7731;50.720;6.912;2023-01-13T02:03:18;99154.00;;;9.03;100.00
17072;BME280;7731;50.720;6.912;2023-01-13T02:05:52;99143.75;;;9.03;100.00
17072;BME280;7731;50.720;6.912;2023-01-13T02:08:22;99148.47;;;8.81;100.00
17072;BME280;7731;50.720;6.912;2023-01-13T02:10:53;99145.56;;;9.01;100.00
17072;BME280;7731;50.720;6.912;2023-01-13T02:13:23;99137.63;;;8.61;100.00
17072;BME280;7731;50.720;6.912;2023-01-13T02:15:59;99125.25;;;8.69;100.00
17072;BME280;7731;50.720;6.912;2023-01-13T02:18:58;99118.94;;;8.89;100.00
17072;BME280;7731;50.720;6.912;2023-01-13T02:22:18;99111.69;;;8.67;100.00
17072;BME280;7731;50.720;6.912;2023-01-13T02:25:47;99113.50;;;8.51;100.00
17072;BME280;7731;50.720;6.912;2023-01-13T02:28:45;99127.13;;;8.66;100.00
17072;BME280;7731;50.720;6.912;2023-01-13T02:31:44;99131.75;;;8.29;100.00
17072;BME280;7731;50.720;6.912;2023-01-13T02:34:27;99127.81;;;8.23;100.00
17072;BME280;7731;50.720;6.912;2023-01-13T02:37:06;99115.63;;;8.43;100.00
17072;BME280;7731;50.720;6.912;2023-01-13T02:39:49;99119.69;;;8.47;100.00
17072;BME280;7731;50.720;6.912;2023-01-13T02:42:30;99122.00;;;8.66;100.00
17072;BME280;7731;50.720;6.912;2023-01-13T02:45:20;99132.22;;;8.35;100.00
17072;BME280;7731;50.720;6.912;2023-01-13T02:47:57;99125.41;;;8.36;100.00
17072;BME280;7731;50.720;6.912;2023-01-13T02:50:35;99116.50;;;8.27;100.00
17072;BME280;7731;50.720;6.912;2023-01-13T02:53:13;99108.19;;;8.23;100.00
17072;BME280;7731;50.720;6.912;2023-01-13T02:55:49;99122.94;;;8.34;100.00
17072;BME280;7731;50.720;6.912;2023-01-13T02:58:24;99115.06;;;8.37;100.00
17072;BME280;7731;50.720;6.912;2023-01-13T03:00:56;99111.84;;;8.34;100.00
17072;BME280;7731;50.720;6.912;2023-01-13T03:03:29;99115.84;;;8.23;100.00
17072;BME280;7731;50.720;6.912;2023-01-13T03:09:06;99129.13;;;8.30;100.00
17072;BME280;7731;50.720;6.912;2023-01-13T03:11:52;99128.81;;;8.20;100.00
17072;BME280;7731;50.720;6.912;2023-01-13T03:14:34;99134.53;;;8.40;100.00
17072;BME280;7731;50.720;6.912;2023-01-13T03:17:28;99125.75;;;8.30;100.00
17072;BME280;7731;50.720;6.912;2023-01-13T03:20:11;99093.81;;;8.21;100.00
17072;BME280;7731;50.720;6.912;2023-01-13T03:22:55;99043.44;;;8.21;98.47
17072;BME280;7731;50.720;6.912;2023-01-13T03:25:31;99101.97;;;8.44;100.00
17072;BME280;7731;50.720;6.912;2023-01-13T03:28:08;99092.16;;;8.20;98.90
17072;BME280;7731;50.720;6.912;2023-01-13T03:30:48;99084.28;;;8.09;100.00
17072;BME280;7731;50.720;6.912;2023-01-13T03:33:27;99085.59;;;8.16;100.00
17072;BME280;7731;50.720;6.912;2023-01-13T03:36:05;99109.50;;;8.15;100.00
17072;BME280;7731;50.720;6.912;2023-01-13T03:38:41;99105.06;;;8.02;100.00
17072;BME280;7731;50.720;6.912;2023-01-13T03:41:33;99096.28;;;8.22;100.00
17072;BME280;7731;50.720;6.912;2023-01-13T03:44:11;99107.06;;;7.97;100.00
17072;BME280;7731;50.720;6.912;2023-01-13T03:47:01;99110.19;;;8.02;100.00
17072;BME280;7731;50.720;6.912;2023-01-13T03:49:42;99101.78;;;8.00;99.98
17072;BME280;7731;50.720;6.912;2023-01-13T03:52:24;99118.59;;;8.04;100.00
17072;BME280;7731;50.720;6.912;2023-01-13T03:55:02;99104.00;;;8.07;100.00
17072;BME280;7731;50.720;6.912;2023-01-13T03:57:38;99097.31;;;8.04;98.09
17072;BME280;7731;50.720;6.912;2023-01-13T04:00:15;99102.91;;;8.11;99.47
17072;BME280;7731;50.720;6.912;2023-01-13T04:02:53;99100.78;;;8.03;100.00
17072;BME280;7731;50.720;6.912;2023-01-13T04:05:26;99097.66;;;7.98;100.00
17072;BME280;7731;50.720;6.912;2023-01-13T04:08:09;99098.31;;;8.01;100.00
17072;BME280;7731;50.720;6.912;2023-01-13T04:10:51;99104.34;;;8.00;100.00
17072;BME280;7731;50.720;6.912;2023-01-13T04:13:27;99107.13;;;8.12;100.00
17072;BME280;7731;50.720;6.912;2023-01-13T04:15:59;99104.38;;;8.15;100.00
17072;BME280;7731;50.720;6.912;2023-01-13T04:18:30;99115.66;;;7.80;100.00
17072;BME280;7731;50.720;6.912;2023-01-13T04:21:02;99115.59;;;7.82;100.00
17072;BME280;7731;50.720;6.912;2023-01-13T04:23:35;99106.44;;;7.78;100.00
17072;BME280;7731;50.720;6.912;2023-01-13T04:26:05;99108.41;;;7.73;100.00
17072;BME280;7731;50.720;6.912;2023-01-13T04:28:36;99117.81;;;7.56;100.00
17072;BME280;7731;50.720;6.912;2023-01-13T04:31:06;99113.50;;;7.57;100.00
17072;BME280;7731;50.720;6.912;2023-01-13T04:33:37;99116.16;;;7.55;100.00
17072;BME280;7731;50.720;6.912;2023-01-13T04:36:08;99113.25;;;7.61;100.00
17072;BME280;7731;50.720;6.912;2023-01-13T04:38:43;99105.75;;;7.58;100.00
17072;BME280;7731;50.720;6.912;2023-01-13T04:41:13;99114.41;;;7.40;100.00
17072;BME280;7731;50.720;6.912;2023-01-13T04:43:43;99103.03;;;7.61;100.00
17072;BME280;7731;50.720;6.912;2023-01-13T04:46:19;99115.50;;;7.83;100.00
17072;BME280;7731;50.720;6.912;2023-01-13T04:48:49;99108.59;;;7.69;100.00
17072;BME280;7731;50.720;6.912;2023-01-13T04:51:19;99110.53;;;7.64;100.00
17072;BME280;7731;50.720;6.912;2023-01-13T04:53:52;99114.59;;;7.53;100.00
17072;BME280;7731;50.720;6.912;2023-01-13T04:56:22;99119.97;;;7.48;100.00
17072;BME280;7731;50.720;6.912;2023-01-13T04:58:52;99122.34;;;7.67;100.00
17072;BME280;7731;50.720;6.912;2023-01-13T05:01:22;99120.78;;;7.48;100.00
17072;BME280;7731;50.720;6.912;2023-01-13T05:03:53;99123.53;;;7.28;100.00
17072;BME280;7731;50.720;6.912;2023-01-13T05:06:23;99129.50;;;7.28;100.00
17072;BME280;7731;50.720;6.912;2023-01-13T05:08:56;99102.47;;;7.40;100.00
17072;BME280;7731;50.720;6.912;2023-01-13T05:11:26;99094.13;;;7.37;100.00
17072;BME280;7731;50.720;6.912;2023-01-13T05:14:09;99100.53;;;7.12;100.00
17072;BME280;7731;50.720;6.912;2023-01-13T05:16:54;99097.66;;;7.18;100.00
17072;BME280;7731;50.720;6.912;2023-01-13T05:19:34;99099.78;;;7.10;100.00
17072;BME280;7731;50.720;6.912;2023-01-13T05:22:05;99089.56;;;7.10;100.00
17072;BME280;7731;50.720;6.912;2023-01-13T05:24:50;99103.56;;;7.03;100.00
17072;BME280;7731;50.720;6.912;2023-01-13T05:27:33;99101.59;;;7.08;100.00
17072;BME280;7731;50.720;6.912;2023-01-13T05:30:08;99096.22;;;6.96;100.00
17072;BME280;7731;50.720;6.912;2023-01-13T05:32:39;99105.22;;;6.86;100.00
17072;BME280;7731;50.720;6.912;2023-01-13T05:35:09;99115.22;;;6.91;100.00
17072;BME280;7731;50.720;6.912;2023-01-13T05:37:39;99117.41;;;6.81;100.00
17072;BME280;7731;50.720;6.912;2023-01-13T05:40:18;99119.50;;;6.90;100.00
17072;BME280;7731;50.720;6.912;2023-01-13T05:43:03;99122.13;;;6.89;100.00
17072;BME280;7731;50.720;6.912;2023-01-13T05:45:55;99118.22;;;6.99;100.00
17072;BME280;7731;50.720;6.912;2023-01-13T05:48:29;99117.69;;;7.26;100.00
17072;BME280;7731;50.720;6.912;2023-01-13T05:51:03;99114.41;;;7.24;100.00
17072;BME280;7731;50.720;6.912;2023-01-13T05:53:35;99111.09;;;6.88;100.00
17072;BME280;7731;50.720;6.912;2023-01-13T05:56:10;99127.72;;;7.13;100.00
17072;BME280;7731;50.720;6.912;2023-01-13T05:58:40;99135.56;;;7.10;100.00
17072;BME280;7731;50.720;6.912;2023-01-13T06:01:10;99127.44;;;7.02;100.00
17072;BME280;7731;50.720;6.912;2023-01-13T06:03:41;99136.22;;;7.13;100.00
17072;BME280;7731;50.720;6.912;2023-01-13T06:06:11;99133.72;;;7.12;100.00
17072;BME280;7731;50.720;6.912;2023-01-13T06:08:41;99122.00;;;7.08;100.00
17072;BME280;7731;50.720;6.912;2023-01-13T06:11:14;99130.06;;;7.33;100.00
17072;BME280;7731;50.720;6.912;2023-01-13T06:13:44;99138.03;;;7.11;100.00
17072;BME280;7731;50.720;6.912;2023-01-13T06:16:14;99135.16;;;7.33;100.00
17072;BME280;7731;50.720;6.912;2023-01-13T06:18:44;99139.56;;;7.31;100.00
17072;BME280;7731;50.720;6.912;2023-01-13T06:21:14;99162.16;;;7.22;100.00
17072;BME280;7731;50.720;6.912;2023-01-13T06:23:44;99154.81;;;7.15;100.00
17072;BME280;7731;50.720;6.912;2023-01-13T06:26:20;99157.25;;;7.01;100.00
17072;BME280;7731;50.720;6.912;2023-01-13T06:28:52;99172.13;;;7.10;100.00
17072;BME280;7731;50.720;6.912;2023-01-13T06:31:23;99165.13;;;7.14;100.00
17072;BME280;7731;50.720;6.912;2023-01-13T06:34:00;99172.63;;;7.17;100.00
17072;BME280;7731;50.720;6.912;2023-01-13T06:36:36;99185.00;;;7.25;100.00
17072;BME280;7731;50.720;6.912;2023-01-13T06:39:16;99178.59;;;7.33;100.00
17072;BME280;7731;50.720;6.912;2023-01-13T06:41:52;99177.72;;;7.35;100.00
17072;BME280;7731;50.720;6.912;2023-01-13T06:44:36;99177.25;;;7.26;100.00
17072;BME280;7731;50.720;6.912;2023-01-13T06:47:06;99171.56;;;7.21;100.00
17072;BME280;7731;50.720;6.912;2023-01-13T06:49:37;99172.00;;;7.29;100.00
17072;BME280;7731;50.720;6.912;2023-01-13T06:52:07;99177.56;;;7.38;100.00
17072;BME280;7731;50.720;6.912;2023-01-13T06:54:37;99170.91;;;7.51;100.00
17072;BME280;7731;50.720;6.912;2023-01-13T06:57:10;99174.03;;;7.56;100.00
17072;BME280;7731;50.720;6.912;2023-01-13T06:59:40;99179.25;;;7.71;100.00
17072;BME280;7731;50.720;6.912;2023-01-13T07:02:10;99184.94;;;7.76;100.00
17072;BME280;7731;50.720;6.912;2023-01-13T07:04:41;99179.34;;;7.85;100.00
17072;BME280;7731;50.720;6.912;2023-01-13T07:07:12;99201.94;;;7.77;100.00
17072;BME280;7731;50.720;6.912;2023-01-13T07:09:45;99184.13;;;7.91;100.00
17072;BME280;7731;50.720;6.912;2023-01-13T07:12:20;99197.78;;;7.58;100.00
17072;BME280;7731;50.720;6.912;2023-01-13T07:14:50;99201.06;;;7.44;100.00
17072;BME280;7731;50.720;6.912;2023-01-13T07:17:33;99208.78;;;7.27;100.00
17072;BME280;7731;50.720;6.912;2023-01-13T07:20:05;99208.09;;;7.06;100.00
17072;BME280;7731;50.720;6.912;2023-01-13T07:22:35;99209.94;;;7.04;100.00
17072;BME280;7731;50.720;6.912;2023-01-13T07:25:08;99206.09;;;6.77;100.00
17072;BME280;7731;50.720;6.912;2023-01-13T07:27:41;99217.88;;;6.97;100.00
17072;BME280;7731;50.720;6.912;2023-01-13T07:30:12;99220.75;;;6.91;100.00
17072;BME280;7731;50.720;6.912;2023-01-13T07:32:42;99226.00;;;7.06;100.00
17072;BME280;7731;50.720;6.912;2023-01-13T07:35:12;99232.19;;;7.35;100.00
17072;BME280;7731;50.720;6.912;2023-01-13T07:37:48;99231.84;;;7.25;100.00
17072;BME280;7731;50.720;6.912;2023-01-13T07:40:18;99250.09;;;7.18;100.00
17072;BME280;7731;50.720;6.912;2023-01-13T07:42:52;99249.56;;;7.11;100.00
17072;BME280;7731;50.720;6.912;2023-01-13T07:45:34;99258.06;;;6.94;100.00
17072;BME280;7731;50.720;6.912;2023-01-13T07:48:05;99259.56;;;6.98;100.00
17072;BME280;7731;50.720;6.912;2023-01-13T07:50:35;99244.75;;;6.70;100.00
17072;BME280;7731;50.720;6.912;2023-01-13T07:53:07;99264.59;;;6.82;100.00
17072;BME280;7731;50.720;6.912;2023-01-13T07:55:40;99251.97;;;6.79;100.00
17072;BME280;7731;50.720;6.912;2023-01-13T07:58:14;99259.09;;;6.36;100.00
17072;BME280;7731;50.720;6.912;2023-01-13T08:00:44;99260.13;;;6.32;100.00
17072;BME280;7731;50.720;6.912;2023-01-13T08:03:14;99243.72;;;6.37;100.00
17072;BME280;7731;50.720;6.912;2023-01-13T08:05:44;99246.22;;;6.20;100.00
17072;BME280;7731;50.720;6.912;2023-01-13T08:08:15;99256.00;;;6.29;100.00
17072;BME280;7731;50.720;6.912;2023-01-13T08:10:45;99247.94;;;6.19;100.00
17072;BME280;7731;50.720;6.912;2023-01-13T08:13:19;99248.28;;;6.31;100.00
17072;BME280;7731;50.720;6.912;2023-01-13T08:15:58;99258.63;;;6.28;100.00
17072;BME280;7731;50.720;6.912;2023-01-13T08:18:30;99270.19;;;6.35;100.00
17072;BME280;7731;50.720;6.912;2023-01-13T08:21:04;99262.44;;;6.55;100.00
17072;BME280;7731;50.720;6.912;2023-01-13T08:23:35;99266.06;;;6.69;100.00
17072;BME280;7731;50.720;6.912;2023-01-13T08:26:08;99270.56;;;6.64;100.00
17072;BME280;7731;50.720;6.912;2023-01-13T08:28:42;99275.53;;;6.67;100.00
17072;BME280;7731;50.720;6.912;2023-01-13T08:31:14;99265.56;;;6.79;100.00
17072;BME280;7731;50.720;6.912;2023-01-13T08:33:46;99271.44;;;7.17;100.00
17072;BME280;7731;50.720;6.912;2023-01-13T08:36:16;99269.38;;;7.23;100.00
17072;BME280;7731;50.720;6.912;2023-01-13T08:38:46;99269.16;;;7.28;100.00
17072;BME280;7731;50.720;6.912;2023-01-13T08:41:17;99275.41;;;7.40;100.00
17072;BME280;7731;50.720;6.912;2023-01-13T08:44:10;99285.94;;;7.51;98.96
17072;BME280;7731;50.720;6.912;2023-01-13T08:46:41;99281.09;;;7.62;100.00
17072;BME280;7731;50.720;6.912;2023-01-13T08:49:11;99282.13;;;7.76;97.54
17072;BME280;7731;50.720;6.912;2023-01-13T08:51:42;99289.50;;;8.14;99.01
17072;BME280;7731;50.720;6.912;2023-01-13T08:54:13;99291.41;;;8.26;95.08
17072;BME280;7731;50.720;6.912;2023-01-13T08:56:44;99300.78;;;7.94;96.04
17072;BME280;7731;50.720;6.912;2023-01-13T08:59:20;99309.88;;;8.15;94.69
17072;BME280;7731;50.720;6.912;2023-01-13T09:01:50;99311.03;;;8.41;93.87
17072;BME280;7731;50.720;6.912;2023-01-13T09:04:23;99312.06;;;8.39;93.53
17072;BME280;7731;50.720;6.912;2023-01-13T09:06:55;99314.38;;;9.36;88.16
17072;BME280;7731;50.720;6.912;2023-01-13T09:09:25;99319.88;;;9.30;84.01
17072;BME280;7731;50.720;6.912;2023-01-13T09:11:55;99312.34;;;8.97;87.09
17072;BME280;7731;50.720;6.912;2023-01-13T09:14:42;99315.03;;;8.31;91.21
17072;BME280;7731;50.720;6.912;2023-01-13T09:17:12;99301.97;;;8.20;91.06
17072;BME280;7731;50.720;6.912;2023-01-13T09:19:42;99313.72;;;8.88;88.07
17072;BME280;7731;50.720;6.912;2023-01-13T09:22:15;99310.50;;;9.15;84.55
17072;BME280;7731;50.720;6.912;2023-01-13T09:24:46;99318.03;;;9.32;80.42
17072;BME280;7731;50.720;6.912;2023-01-13T09:27:17;99315.69;;;10.99;72.68
17072;BME280;7731;50.720;6.912;2023-01-13T09:29:50;99316.31;;;11.55;68.23
17072;BME280;7731;50.720;6.912;2023-01-13T09:32:20;99304.75;;;11.87;63.90
17072;BME280;7731;50.720;6.912;2023-01-13T09:34:50;99309.25;;;11.06;64.41
17072;BME280;7731;50.720;6.912;2023-01-13T09:37:28;99303.97;;;11.73;62.02
17072;BME280;7731;50.720;6.912;2023-01-13T09:40:02;99304.28;;;11.69;62.47
17072;BME280;7731;50.720;6.912;2023-01-13T09:42:42;99313.13;;;12.40;59.14
17072;BME280;7731;50.720;6.912;2023-01-13T09:45:36;99306.13;;;12.91;59.20
17072;BME280;7731;50.720;6.912;2023-01-13T09:48:14;99320.88;;;12.64;57.92
17072;BME280;7731;50.720;6.912;2023-01-13T09:50:58;99296.13;;;12.75;55.91
17072;BME280;7731;50.720;6.912;2023-01-13T09:53:35;99313.44;;;11.99;58.69
17072;BME280;7731;50.720;6.912;2023-01-13T09:56:09;99308.03;;;12.76;57.43
17072;BME280;7731;50.720;6.912;2023-01-13T09:58:45;99322.97;;;11.84;59.69
17072;BME280;7731;50.720;6.912;2023-01-13T10:01:28;99294.34;;;12.75;56.23
17072;BME280;7731;50.720;6.912;2023-01-13T10:04:08;99309.81;;;12.14;58.04
17072;BME280;7731;50.720;6.912;2023-01-13T10:06:43;99309.41;;;12.07;60.48
17072;BME280;7731;50.720;6.912;2023-01-13T10:09:28;99294.84;;;13.16;57.88
17072;BME280;7731;50.720;6.912;2023-01-13T10:12:01;99292.84;;;13.89;54.74
17072;BME280;7731;50.720;6.912;2023-01-13T10:14:52;99296.59;;;13.85;52.76
17072;BME280;7731;50.720;6.912;2023-01-13T10:17:33;99297.69;;;12.64;56.92
17072;BME280;7731;50.720;6.912;2023-01-13T10:20:16;99296.72;;;13.14;55.82
17072;BME280;7731;50.720;6.912;2023-01-13T10:23:05;99303.00;;;12.50;57.24
17072;BME280;7731;50.720;6.912;2023-01-13T10:25:56;99316.59;;;11.64;60.65
17072;BME280;7731;50.720;6.912;2023-01-13T10:28:31;99300.66;;;11.84;60.86
17072;BME280;7731;50.720;6.912;2023-01-13T10:31:10;99296.94;;;11.88;60.90
17072;BME280;7731;50.720;6.912;2023-01-13T10:33:43;99305.09;;;10.90;62.49
17072;BME280;7731;50.720;6.912;2023-01-13T10:36:16;99303.22;;;10.80;65.43
17072;BME280;7731;50.720;6.912;2023-01-13T10:38:49;99311.72;;;10.53;65.81
17072;BME280;7731;50.720;6.912;2023-01-13T10:41:25;99313.00;;;11.53;62.17
17072;BME280;7731;50.720;6.912;2023-01-13T10:44:03;99317.53;;;11.88;61.09
17072;BME280;7731;50.720;6.912;2023-01-13T10:46:52;99309.81;;;12.51;58.20
17072;BME280;7731;50.720;6.912;2023-01-13T10:49:32;99307.13;;;11.51;61.21
17072;BME280;7731;50.720;6.912;2023-01-13T10:52:23;99318.53;;;11.47;61.68
17072;BME280;7731;50.720;6.912;2023-01-13T10:54:55;99309.31;;;12.09;60.17
17072;BME280;7731;50.720;6.912;2023-01-13T10:57:27;99308.28;;;11.86;59.79
17072;BME280;7731;50.720;6.912;2023-01-13T10:59:57;99320.44;;;11.96;58.96
17072;BME280;7731;50.720;6.912;2023-01-13T11:02:33;99316.50;;;11.91;59.20
17072;BME280;7731;50.720;6.912;2023-01-13T11:05:21;99321.34;;;11.83;60.49
17072;BME280;7731;50.720;6.912;2023-01-13T11:07:53;99326.59;;;12.07;58.56
17072;BME280;7731;50.720;6.912;2023-01-13T11:10:26;99331.56;;;12.71;56.51
17072;BME280;7731;50.720;6.912;2023-01-13T11:13:07;99326.25;;;12.61;59.46
17072;BME280;7731;50.720;6.912;2023-01-13T11:15:46;99339.16;;;11.60;58.79
17072;BME280;7731;50.720;6.912;2023-01-13T11:18:39;99333.78;;;10.70;62.94
17072;BME280;7731;50.720;6.912;2023-01-13T11:21:39;99340.41;;;11.01;61.39
17072;BME280;7731;50.720;6.912;2023-01-13T11:24:17;99334.44;;;11.92;58.75
17072;BME280;7731;50.720;6.912;2023-01-13T11:26:57;99345.31;;;11.57;61.87
17072;BME280;7731;50.720;6.912;2023-01-13T11:29:36;99346.72;;;11.36;63.86
17072;BME280;7731;50.720;6.912;2023-01-13T11:32:16;99343.25;;;11.37;62.71
17072;BME280;7731;50.720;6.912;2023-01-13T11:34:50;99356.13;;;11.50;61.92
17072;BME280;7731;50.720;6.912;2023-01-13T11:37:29;99349.13;;;11.65;60.83
17072;BME280;7731;50.720;6.912;2023-01-13T11:40:08;99343.88;;;11.53;60.66
17072;BME280;7731;50.720;6.912;2023-01-13T11:42:49;99346.75;;;11.74;60.66
17072;BME280;7731;50.720;6.912;2023-01-13T11:45:35;99353.91;;;12.46;58.69
17072;BME280;7731;50.720;6.912;2023-01-13T11:48:15;99356.75;;;11.66;57.67
17072;BME280;7731;50.720;6.912;2023-01-13T11:50:50;99366.50;;;10.81;65.71
17072;BME280;7731;50.720;6.912;2023-01-13T11:54:02;99369.41;;;10.47;67.10
17072;BME280;7731;50.720;6.912;2023-01-13T11:57:16;99372.34;;;9.83;68.78
17072;BME280;7731;50.720;6.912;2023-01-13T12:00:17;99437.03;;;9.28;82.04
17072;BME280;7731;50.720;6.912;2023-01-13T12:03:16;99402.03;;;9.43;89.07
17072;BME280;7731;50.720;6.912;2023-01-13T12:06:05;99394.25;;;9.44;87.45
17072;BME280;7731;50.720;6.912;2023-01-13T12:09:21;99402.53;;;9.50;90.82
17072;BME280;7731;50.720;6.912;2023-01-13T12:12:13;99388.19;;;9.31;87.08
17072;BME280;7731;50.720;6.912;2023-01-13T12:15:34;99407.53;;;9.21;88.90
17072;BME280;7731;50.720;6.912;2023-01-13T12:18:33;99405.69;;;9.39;85.08
17072;BME280;7731;50.720;6.912;2023-01-13T12:21:32;99400.22;;;9.45;87.60
17072;BME280;7731;50.720;6.912;2023-01-13T12:24:17;99414.66;;;9.00;87.26
17072;BME280;7731;50.720;6.912;2023-01-13T12:26:57;99414.34;;;8.74;88.69
17072;BME280;7731;50.720;6.912;2023-01-13T12:29:31;99408.47;;;8.88;88.42
17072;BME280;7731;50.720;6.912;2023-01-13T12:32:06;99406.81;;;8.87;88.90
17072;BME280;7731;50.720;6.912;2023-01-13T12:35:01;99392.69;;;8.80;87.20
17072;BME280;7731;50.720;6.912;2023-01-13T12:37:41;99399.56;;;8.79;85.38
17072;BME280;7731;50.720;6.912;2023-01-13T12:40:32;99373.53;;;8.87;83.96
17072;BME280;7731;50.720;6.912;2023-01-13T12:43:16;99382.19;;;9.00;86.33
17072;BME280;7731;50.720;6.912;2023-01-13T12:46:43;99382.94;;;9.02;84.21
17072;BME280;7731;50.720;6.912;2023-01-13T12:49:32;99389.03;;;9.16;85.12
17072;BME280;7731;50.720;6.912;2023-01-13T12:52:13;99387.72;;;9.08;82.95
17072;BME280;7731;50.720;6.912;2023-01-13T12:55:12;99384.47;;;9.21;83.58
17072;BME280;7731;50.720;6.912;2023-01-13T12:58:16;99380.25;;;9.20;83.53
17072;BME280;7731;50.720;6.912;2023-01-13T13:01:09;99378.34;;;9.23;81.69
17072;BME280;7731;50.720;6.912;2023-01-13T13:03:41;99376.22;;;9.16;80.51
17072;BME280;7731;50.720;6.912;2023-01-13T13:06:35;99382.06;;;9.18;80.05
17072;BME280;7731;50.720;6.912;2023-01-13T13:09:18;99397.78;;;9.11;81.49
17072;BME280;7731;50.720;6.912;2023-01-13T13:11:52;99393.19;;;9.02;81.31
17072;BME280;7731;50.720;6.912;2023-01-13T13:15:12;99395.84;;;8.85;80.60
17072;BME280;7731;50.720;6.912;2023-01-13T13:18:05;99402.25;;;8.92;81.24
17072;BME280;7731;50.720;6.912;2023-01-13T13:21:04;99403.94;;;8.77;83.54
17072;BME280;7731;50.720;6.912;2023-01-13T13:24:03;99404.41;;;9.00;83.22
17072;BME280;7731;50.720;6.912;2023-01-13T13:26:40;99408.88;;;8.96;85.26
17072;BME280;7731;50.720;6.912;2023-01-13T13:29:45;99413.66;;;9.02;83.50
17072;BME280;7731;50.720;6.912;2023-01-13T13:32:55;99420.53;;;9.02;83.85
17072;BME280;7731;50.720;6.912;2023-01-13T13:35:50;99420.28;;;9.06;83.68
17072;BME280;7731;50.720;6.912;2023-01-13T13:38:43;99425.75;;;9.00;84.24
17072;BME280;7731;50.720;6.912;2023-01-13T13:41:35;99427.22;;;9.20;82.83
17072;BME280;7731;50.720;6.912;2023-01-13T13:44:25;99429.84;;;9.03;83.10
17072;BME280;7731;50.720;6.912;2023-01-13T13:47:10;99433.00;;;8.92;83.52
17072;BME280;7731;50.720;6.912;2023-01-13T13:49:45;99444.09;;;9.08;84.56
17072;BME280;7731;50.720;6.912;2023-01-13T13:52:26;99451.78;;;9.08;83.87
17072;BME280;7731;50.720;6.912;2023-01-13T13:55:08;99445.91;;;9.06;83.28
17072;BME280;7731;50.720;6.912;2023-01-13T13:57:47;99458.38;;;8.97;84.55
17072;BME280;7731;50.720;6.912;2023-01-13T14:00:24;99462.19;;;9.05;85.69
17072;BME280;7731;50.720;6.912;2023-01-13T14:02:59;99468.28;;;9.03;84.76
17072;BME280;7731;50.720;6.912;2023-01-13T14:05:33;99470.19;;;8.99;85.59
17072;BME280;7731;50.720;6.912;2023-01-13T14:08:14;99480.13;;;8.89;85.19
17072;BME280;7731;50.720;6.912;2023-01-13T14:10:45;99495.81;;;8.99;86.37
17072;BME280;7731;50.720;6.912;2023-01-13T14:13:20;99488.53;;;8.91;85.12